sensor_id;sensor_type;location;lat;lon;timestamp;pressure;altitude;pressure_sealevel;temperature;humidity
6453;BME280;3259;51.080;13.712;2023-06-19T00:01:34;100141.47;;;27.13;42.71
6453;BME280;3259;51.080;13.712;2023-06-19T00:04:23;100136.97;;;27.13;42.71
6453;BME280;3259;51.080;13.712;2023-06-19T00:07:13;100137.38;;;27.10;42.71
6453;BME280;3259;51.080;13.712;2023-06-19T00:10:05;100134.06;;;27.08;42.58
6453;BME280;3259;51.080;13.712;2023-06-19T00:12:53;100136.13;;;27.06;42.51
6453;BME280;3259;51.080;13.712;2023-06-19T00:15:42;100136.59;;;27.03;42.68
6453;BME280;3259;51.080;13.712;2023-06-19T00:18:31;100133.00;;;27.22;42.30
6453;BME280;3259;51.080;13.712;2023-06-19T00:21:26;100125.22;;;27.14;42.27
6453;BME280;3259;51.080;13.712;2023-06-19T00:24:15;100131.59;;;27.13;41.96
6453;BME280;3259;51.080;13.712;2023-06-19T00:27:06;100123.78;;;27.12;42.33
6453;BME280;3259;51.080;13.712;2023-06-19T00:29:55;100125.03;;;27.03;42.48
6453;BME280;3259;51.080;13.712;2023-06-19T00:32:48;100133.94;;;26.97;42.64
6453;BME280;3259;51.080;13.712;2023-06-19T00:35:40;100132.50;;;26.94;42.58
6453;BME280;3259;51.080;13.712;2023-06-19T00:38:29;100130.44;;;26.96;42.81
6453;BME280;3259;51.080;13.712;2023-06-19T00:41:18;100131.91;;;26.92;42.88
6453;BME280;3259;51.080;13.712;2023-06-19T00:44:08;100125.53;;;26.93;42.82
6453;BME280;3259;51.080;13.712;2023-06-19T00:46:58;100121.81;;;26.94;42.81
6453;BME280;3259;51.080;13.712;2023-06-19T00:49:47;100128.38;;;26.98;43.05
6453;BME280;3259;51.080;13.712;2023-06-19T00:52:37;100131.06;;;26.98;43.00
6453;BME280;3259;51.080;13.712;2023-06-19T00:55:29;100121.16;;;26.99;42.88
6453;BME280;3259;51.080;13.712;2023-06-19T00:58:18;100121.16;;;26.99;42.74
6453;BME280;3259;51.080;13.712;2023-06-19T01:01:11;100117.63;;;27.11;42.39
6453;BME280;3259;51.080;13.712;2023-06-19T01:03:59;100111.88;;;27.01;42.33
6453;BME280;3259;51.080;13.712;2023-06-19T01:06:53;100116.06;;;26.91;42.80
6453;BME280;3259;51.080;13.712;2023-06-19T01:09:49;100118.19;;;26.82;43.12
6453;BME280;3259;51.080;13.712;2023-06-19T01:12:44;100121.50;;;26.78;42.99
6453;BME280;3259;51.080;13.712;2023-06-19T01:15:38;100121.13;;;26.74;43.08
6453;BME280;3259;51.080;13.712;2023-06-19T01:18:30;100109.78;;;26.72;43.24
6453;BME280;3259;51.080;13.712;2023-06-19T01:21:20;100117.44;;;26.69;43.20
6453;BME280;3259;51.080;13.712;2023-06-19T01:24:10;100114.75;;;26.75;43.14
6453;BME280;3259;51.080;13.712;2023-06-19T01:26:59;100110.78;;;26.78;43.16
6453;BME280;3259;51.080;13.712;2023-06-19T01:29:48;100101.34;;;26.75;43.22
6453;BME280;3259;51.080;13.712;2023-06-19T01:32:41;100091.91;;;26.73;43.22
6453;BME280;3259;51.080;13.712;2023-06-19T01:35:34;100096.03;;;26.69;43.38
6453;BME280;3259;51.080;13.712;2023-06-19T01:38:25;100102.19;;;26.69;43.38
6453;BME280;3259;51.080;13.712;2023-06-19T01:41:19;100094.00;;;26.64;43.42
6453;BME280;3259;51.080;13.712;2023-06-19T01:44:08;100103.06;;;26.63;43.41
6453;BME280;3259;51.080;13.712;2023-06-19T01:46:57;100095.03;;;26.63;43.44
6453;BME280;3259;51.080;13.712;2023-06-19T01:49:46;100089.06;;;26.61;43.44
6453;BME280;3259;51.080;13.712;2023-06-19T01:52:38;100087.41;;;26.60;43.41
6453;BME280;3259;51.080;13.712;2023-06-19T01:55:27;100092.38;;;26.63;43.41
6453;BME280;3259;51.080;13.712;2023-06-19T01:58:17;100085.97;;;26.64;43.40
6453;BME280;3259;51.080;13.712;2023-06-19T02:01:06;100080.03;;;26.62;43.56
6453;BME280;3259;51.080;13.712;2023-06-19T02:03:55;100083.50;;;26.63;43.31
6453;BME280;3259;51.080;13.712;2023-06-19T02:06:43;100078.41;;;26.55;43.49
6453;BME280;3259;51.080;13.712;2023-06-19T02:09:33;100083.16;;;26.53;43.41
6453;BME280;3259;51.080;13.712;2023-06-19T02:12:21;100077.41;;;26.56;43.72
6453;BME280;3259;51.080;13.712;2023-06-19T02:15:11;100068.69;;;26.60;43.27
6453;BME280;3259;51.080;13.712;2023-06-19T02:18:00;100077.59;;;26.54;43.39
6453;BME280;3259;51.080;13.712;2023-06-19T02:20:49;100079.44;;;26.54;43.38
6453;BME280;3259;51.080;13.712;2023-06-19T02:23:38;100072.25;;;26.54;43.67
6453;BME280;3259;51.080;13.712;2023-06-19T02:26:27;100078.22;;;26.50;43.60
6453;BME280;3259;51.080;13.712;2023-06-19T02:29:16;100074.72;;;26.49;43.71
6453;BME280;3259;51.080;13.712;2023-06-19T02:32:07;100067.53;;;26.50;43.28
6453;BME280;3259;51.080;13.712;2023-06-19T02:34:57;100070.81;;;26.45;43.72
6453;BME280;3259;51.080;13.712;2023-06-19T02:37:46;100064.03;;;26.43;43.49
6453;BME280;3259;51.080;13.712;2023-06-19T02:40:34;100062.03;;;26.38;43.67
6453;BME280;3259;51.080;13.712;2023-06-19T02:43:23;100057.47;;;26.39;43.44
6453;BME280;3259;51.080;13.712;2023-06-19T02:46:12;100068.75;;;26.54;43.15
6453;BME280;3259;51.080;13.712;2023-06-19T02:49:02;100060.34;;;26.50;43.00
6453;BME280;3259;51.080;13.712;2023-06-19T02:51:51;100063.19;;;26.49;43.20
6453;BME280;3259;51.080;13.712;2023-06-19T02:54:39;100060.72;;;26.47;43.09
6453;BME280;3259;51.080;13.712;2023-06-19T02:57:29;100058.03;;;26.47;43.07
6453;BME280;3259;51.080;13.712;2023-06-19T03:00:18;100064.91;;;26.37;43.15
6453;BME280;3259;51.080;13.712;2023-06-19T03:03:07;100066.41;;;26.26;43.67
6453;BME280;3259;51.080;13.712;2023-06-19T03:05:57;100065.31;;;26.40;43.22
6453;BME280;3259;51.080;13.712;2023-06-19T03:08:48;100050.00;;;26.47;43.07
6453;BME280;3259;51.080;13.712;2023-06-19T03:11:36;100059.59;;;26.30;43.26
6453;BME280;3259;51.080;13.712;2023-06-19T03:14:25;100062.06;;;26.25;43.42
6453;BME280;3259;51.080;13.712;2023-06-19T03:17:14;100059.66;;;26.17;43.66
6453;BME280;3259;51.080;13.712;2023-06-19T03:20:03;100058.41;;;26.13;43.87
6453;BME280;3259;51.080;13.712;2023-06-19T03:22:54;100054.53;;;26.09;43.91
6453;BME280;3259;51.080;13.712;2023-06-19T03:25:42;100057.63;;;26.06;43.89
6453;BME280;3259;51.080;13.712;2023-06-19T03:28:31;100054.13;;;26.06;43.69
6453;BME280;3259;51.080;13.712;2023-06-19T03:31:20;100057.84;;;26.05;44.29
6453;BME280;3259;51.080;13.712;2023-06-19T03:34:09;100052.28;;;26.06;44.19
6453;BME280;3259;51.080;13.712;2023-06-19T03:36:57;100060.47;;;26.11;44.19
6453;BME280;3259;51.080;13.712;2023-06-19T03:39:47;100054.97;;;26.06;44.00
6453;BME280;3259;51.080;13.712;2023-06-19T03:42:36;100058.84;;;26.10;44.00
6453;BME280;3259;51.080;13.712;2023-06-19T03:45:25;100054.34;;;26.11;44.26
6453;BME280;3259;51.080;13.712;2023-06-19T03:48:13;100049.16;;;26.16;44.08
6453;BME280;3259;51.080;13.712;2023-06-19T03:51:03;100053.50;;;26.10;44.35
6453;BME280;3259;51.080;13.712;2023-06-19T03:53:52;100054.34;;;26.11;44.10
6453;BME280;3259;51.080;13.712;2023-06-19T03:56:42;100055.97;;;26.12;44.04
6453;BME280;3259;51.080;13.712;2023-06-19T03:59:31;100058.84;;;26.10;44.24
6453;BME280;3259;51.080;13.712;2023-06-19T04:02:20;100058.66;;;26.05;44.18
6453;BME280;3259;51.080;13.712;2023-06-19T04:05:08;100057.41;;;26.08;44.09
6453;BME280;3259;51.080;13.712;2023-06-19T04:07:57;100057.56;;;26.19;43.90
6453;BME280;3259;51.080;13.712;2023-06-19T04:10:46;100057.22;;;26.09;44.16
6453;BME280;3259;51.080;13.712;2023-06-19T04:13:36;100054.09;;;26.12;44.33
6453;BME280;3259;51.080;13.712;2023-06-19T04:16:24;100050.22;;;26.08;44.43
6453;BME280;3259;51.080;13.712;2023-06-19T04:19:13;100046.50;;;26.09;43.92
6453;BME280;3259;51.080;13.712;2023-06-19T04:22:02;100051.25;;;26.07;44.30
6453;BME280;3259;51.080;13.712;2023-06-19T04:24:51;100059.69;;;26.11;44.42
6453;BME280;3259;51.080;13.712;2023-06-19T04:27:40;100071.00;;;26.06;44.73
6453;BME280;3259;51.080;13.712;2023-06-19T04:30:30;100072.25;;;26.04;44.53
6453;BME280;3259;51.080;13.712;2023-06-19T04:33:19;100064.81;;;26.06;44.67
6453;BME280;3259;51.080;13.712;2023-06-19T04:36:08;100071.59;;;26.08;44.59
6453;BME280;3259;51.080;13.712;2023-06-19T04:38:57;100063.75;;;26.13;44.57
6453;BME280;3259;51.080;13.712;2023-06-19T04:41:47;100068.72;;;26.16;44.54
6453;BME280;3259;51.080;13.712;2023-06-19T04:44:36;100068.47;;;26.18;44.70
6453;BME280;3259;51.080;13.712;2023-06-19T04:47:26;100067.41;;;26.25;44.38
6453;BME280;3259;51.080;13.712;2023-06-19T04:50:25;100061.66;;;26.28;44.47
6453;BME280;3259;51.080;13.712;2023-06-19T04:53:14;100057.56;;;26.19;44.42
6453;BME280;3259;51.080;13.712;2023-06-19T04:56:03;100066.63;;;26.18;44.60
6453;BME280;3259;51.080;13.712;2023-06-19T04:58:52;100065.41;;;26.21;44.82
6453;BME280;3259;51.080;13.712;2023-06-19T05:01:42;100066.19;;;26.21;44.85
6453;BME280;3259;51.080;13.712;2023-06-19T05:04:33;100069.47;;;26.23;44.60
6453;BME280;3259;51.080;13.712;2023-06-19T05:07:21;100071.31;;;26.29;44.48
6453;BME280;3259;51.080;13.712;2023-06-19T05:10:10;100074.44;;;26.26;44.64
6453;BME280;3259;51.080;13.712;2023-06-19T05:12:59;100078.97;;;26.19;44.55
6453;BME280;3259;51.080;13.712;2023-06-19T05:15:48;100080.19;;;26.23;44.56
6453;BME280;3259;51.080;13.712;2023-06-19T05:18:39;100075.44;;;26.25;44.29
6453;BME280;3259;51.080;13.712;2023-06-19T05:21:29;100071.53;;;26.28;43.98
6453;BME280;3259;51.080;13.712;2023-06-19T05:24:18;100074.41;;;26.33;44.09
6453;BME280;3259;51.080;13.712;2023-06-19T05:27:07;100080.53;;;26.33;44.27
6453;BME280;3259;51.080;13.712;2023-06-19T05:29:55;100072.28;;;26.41;44.70
6453;BME280;3259;51.080;13.712;2023-06-19T05:32:44;100076.59;;;26.42;44.50
6453;BME280;3259;51.080;13.712;2023-06-19T05:35:33;100078.44;;;26.42;44.26
6453;BME280;3259;51.080;13.712;2023-06-19T05:38:23;100069.41;;;26.36;44.55
6453;BME280;3259;51.080;13.712;2023-06-19T05:41:13;100075.41;;;26.38;44.63
6453;BME280;3259;51.080;13.712;2023-06-19T05:44:03;100074.75;;;26.36;44.58
6453;BME280;3259;51.080;13.712;2023-06-19T05:46:52;100075.75;;;26.42;44.37
6453;BME280;3259;51.080;13.712;2023-06-19T05:49:41;100076.81;;;26.41;44.40
6453;BME280;3259;51.080;13.712;2023-06-19T05:52:29;100078.69;;;26.40;44.96
6453;BME280;3259;51.080;13.712;2023-06-19T05:55:19;100077.03;;;26.39;45.23
6453;BME280;3259;51.080;13.712;2023-06-19T05:58:09;100082.19;;;26.34;45.25
6453;BME280;3259;51.080;13.712;2023-06-19T06:00:57;100078.06;;;26.38;45.25
6453;BME280;3259;51.080;13.712;2023-06-19T06:03:46;100081.34;;;26.40;45.02
6453;BME280;3259;51.080;13.712;2023-06-19T06:06:35;100073.94;;;26.42;45.06
6453;BME280;3259;51.080;13.712;2023-06-19T06:09:24;100085.06;;;26.39;45.08
6453;BME280;3259;51.080;13.712;2023-06-19T06:12:15;100083.78;;;26.42;44.84
6453;BME280;3259;51.080;13.712;2023-06-19T06:15:05;100077.59;;;26.48;44.95
6453;BME280;3259;51.080;13.712;2023-06-19T06:17:54;100088.75;;;26.45;44.86
6453;BME280;3259;51.080;13.712;2023-06-19T06:20:43;100090.13;;;26.47;44.66
6453;BME280;3259;51.080;13.712;2023-06-19T06:23:31;100092.00;;;26.47;44.62
6453;BME280;3259;51.080;13.712;2023-06-19T06:26:20;100092.44;;;26.50;44.57
6453;BME280;3259;51.080;13.712;2023-06-19T06:29:10;100097.38;;;26.53;44.35
6453;BME280;3259;51.080;13.712;2023-06-19T06:32:03;100099.81;;;26.48;44.94
6453;BME280;3259;51.080;13.712;2023-06-19T06:34:52;100102.47;;;26.55;44.77
6453;BME280;3259;51.080;13.712;2023-06-19T06:37:41;100104.34;;;26.54;44.21
6453;BME280;3259;51.080;13.712;2023-06-19T06:40:30;100105.38;;;26.53;44.30
6453;BME280;3259;51.080;13.712;2023-06-19T06:43:19;100097.78;;;26.50;44.54
6453;BME280;3259;51.080;13.712;2023-06-19T06:46:09;100105.56;;;26.58;44.35
6453;BME280;3259;51.080;13.712;2023-06-19T06:48:58;100095.66;;;26.65;43.90
6453;BME280;3259;51.080;13.712;2023-06-19T06:51:47;100115.44;;;26.58;44.21
6453;BME280;3259;51.080;13.712;2023-06-19T06:54:36;100101.84;;;26.59;44.11
6453;BME280;3259;51.080;13.712;2023-06-19T06:57:25;100103.06;;;26.63;44.02
6453;BME280;3259;51.080;13.712;2023-06-19T07:00:14;100112.13;;;26.62;43.83
6453;BME280;3259;51.080;13.712;2023-06-19T07:03:07;100111.25;;;26.68;43.97
6453;BME280;3259;51.080;13.712;2023-06-19T07:05:55;100108.44;;;26.63;43.90
6453;BME280;3259;51.080;13.712;2023-06-19T07:08:44;100108.44;;;26.63;44.01
6453;BME280;3259;51.080;13.712;2023-06-19T07:11:34;100106.78;;;26.62;44.15
6453;BME280;3259;51.080;13.712;2023-06-19T07:14:23;100103.63;;;26.72;43.86
6453;BME280;3259;51.080;13.712;2023-06-19T07:17:11;100097.66;;;26.76;43.42
6453;BME280;3259;51.080;13.712;2023-06-19T07:20:02;100103.44;;;26.67;43.73
6453;BME280;3259;51.080;13.712;2023-06-19T07:22:52;100111.25;;;26.68;43.91
6453;BME280;3259;51.080;13.712;2023-06-19T07:25:41;100103.84;;;26.70;44.00
6453;BME280;3259;51.080;13.712;2023-06-19T07:28:30;100107.78;;;26.68;44.11
6453;BME280;3259;51.080;13.712;2023-06-19T07:31:18;100115.22;;;26.59;44.12
6453;BME280;3259;51.080;13.712;2023-06-19T07:34:07;100110.81;;;26.71;43.90
6453;BME280;3259;51.080;13.712;2023-06-19T07:36:58;100120.34;;;26.67;43.97
6453;BME280;3259;51.080;13.712;2023-06-19T07:39:48;100119.91;;;26.70;44.44
6453;BME280;3259;51.080;13.712;2023-06-19T07:42:37;100106.72;;;26.75;44.17
6453;BME280;3259;51.080;13.712;2023-06-19T07:45:30;100107.06;;;26.79;43.89
6453;BME280;3259;51.080;13.712;2023-06-19T07:48:21;100112.41;;;26.85;43.91
6453;BME280;3259;51.080;13.712;2023-06-19T07:51:10;100113.63;;;26.89;43.79
6453;BME280;3259;51.080;13.712;2023-06-19T07:54:00;100112.03;;;26.82;43.80
6453;BME280;3259;51.080;13.712;2023-06-19T07:56:49;100109.09;;;26.83;43.78
6453;BME280;3259;51.080;13.712;2023-06-19T07:59:38;100116.97;;;26.78;43.55
6453;BME280;3259;51.080;13.712;2023-06-19T08:02:29;100118.09;;;26.95;42.97
6453;BME280;3259;51.080;13.712;2023-06-19T08:05:18;100122.69;;;26.88;42.77
6453;BME280;3259;51.080;13.712;2023-06-19T08:08:07;100120.22;;;26.87;43.23
6453;BME280;3259;51.080;13.712;2023-06-19T08:10:57;100119.41;;;26.86;43.22
6453;BME280;3259;51.080;13.712;2023-06-19T08:13:45;100121.88;;;26.81;43.33
6453;BME280;3259;51.080;13.712;2023-06-19T08:16:34;100121.88;;;26.81;43.60
6453;BME280;3259;51.080;13.712;2023-06-19T08:19:23;100122.31;;;26.78;43.90
6453;BME280;3259;51.080;13.712;2023-06-19T08:22:11;100120.00;;;26.88;43.56
6453;BME280;3259;51.080;13.712;2023-06-19T08:25:00;100127.00;;;26.89;43.83
6453;BME280;3259;51.080;13.712;2023-06-19T08:27:51;100129.63;;;26.96;43.59
6453;BME280;3259;51.080;13.712;2023-06-19T08:30:40;100127.16;;;26.94;43.81
6453;BME280;3259;51.080;13.712;2023-06-19T08:33:29;100137.88;;;26.94;43.61
6453;BME280;3259;51.080;13.712;2023-06-19T08:36:18;100131.47;;;26.95;44.07
6453;BME280;3259;51.080;13.712;2023-06-19T08:39:07;100133.34;;;26.95;43.86
6453;BME280;3259;51.080;13.712;2023-06-19T08:41:56;100133.31;;;27.01;43.64
6453;BME280;3259;51.080;13.712;2023-06-19T08:44:46;100130.84;;;27.00;43.73
6453;BME280;3259;51.080;13.712;2023-06-19T08:47:35;100127.13;;;27.01;43.80
6453;BME280;3259;51.080;13.712;2023-06-19T08:50:24;100122.16;;;27.04;44.00
6453;BME280;3259;51.080;13.712;2023-06-19T08:53:14;100127.28;;;27.12;43.76
6453;BME280;3259;51.080;13.712;2023-06-19T08:56:03;100145.16;;;27.18;43.55
6453;BME280;3259;51.080;13.712;2023-06-19T08:58:53;100142.22;;;27.26;43.69
6453;BME280;3259;51.080;13.712;2023-06-19T09:01:48;100145.94;;;27.25;43.76
6453;BME280;3259;51.080;13.712;2023-06-19T09:04:38;100143.84;;;27.27;43.84
6453;BME280;3259;51.080;13.712;2023-06-19T09:07:27;100135.56;;;27.35;43.84
6453;BME280;3259;51.080;13.712;2023-06-19T09:10:18;100138.00;;;27.37;43.84
6453;BME280;3259;51.080;13.712;2023-06-19T09:13:07;100142.75;;;27.35;43.73
6453;BME280;3259;51.080;13.712;2023-06-19T09:16:00;100142.13;;;27.39;43.56
6453;BME280;3259;51.080;13.712;2023-06-19T09:18:51;100134.06;;;27.39;43.61
6453;BME280;3259;51.080;13.712;2023-06-19T09:21:39;100141.25;;;27.45;43.70
6453;BME280;3259;51.080;13.712;2023-06-19T09:24:35;100128.88;;;27.44;43.71
6453;BME280;3259;51.080;13.712;2023-06-19T09:27:24;100135.28;;;27.43;43.42
6453;BME280;3259;51.080;13.712;2023-06-19T09:30:15;100133.63;;;27.42;43.59
6453;BME280;3259;51.080;13.712;2023-06-19T09:33:06;100133.63;;;27.42;43.88
6453;BME280;3259;51.080;13.712;2023-06-19T09:35:58;100141.63;;;27.49;43.66
6453;BME280;3259;51.080;13.712;2023-06-19T09:38:48;100139.75;;;27.49;43.61
6453;BME280;3259;51.080;13.712;2023-06-19T09:41:37;100142.91;;;27.46;44.17
6453;BME280;3259;51.080;13.712;2023-06-19T09:44:28;100140.81;;;27.48;44.14
6453;BME280;3259;51.080;13.712;2023-06-19T09:47:25;100139.75;;;27.49;44.24
6453;BME280;3259;51.080;13.712;2023-06-19T09:50:18;100128.06;;;27.44;44.29
6453;BME280;3259;51.080;13.712;2023-06-19T09:53:08;100118.94;;;27.51;44.30
6453;BME280;3259;51.080;13.712;2023-06-19T09:55:58;100128.16;;;27.55;44.02
6453;BME280;3259;51.080;13.712;2023-06-19T09:58:48;100131.66;;;27.56;44.30
6453;BME280;3259;51.080;13.712;2023-06-19T10:01:38;100127.13;;;27.56;44.21
6453;BME280;3259;51.080;13.712;2023-06-19T10:04:27;100129.19;;;27.54;44.21
6453;BME280;3259;51.080;13.712;2023-06-19T10:07:18;100126.69;;;27.59;44.19
6453;BME280;3259;51.080;13.712;2023-06-19T10:10:11;100128.78;;;27.57;44.53
6453;BME280;3259;51.080;13.712;2023-06-19T10:13:13;100124.56;;;27.68;44.39
6453;BME280;3259;51.080;13.712;2023-06-19T10:16:03;100129.13;;;27.61;44.24
6453;BME280;3259;51.080;13.712;2023-06-19T10:18:51;100129.97;;;27.61;44.36
6453;BME280;3259;51.080;13.712;2023-06-19T10:21:44;100125.34;;;27.68;44.01
6453;BME280;3259;51.080;13.712;2023-06-19T10:24:34;100111.72;;;27.76;43.68
6453;BME280;3259;51.080;13.712;2023-06-19T10:27:25;100118.63;;;27.84;43.22
6453;BME280;3259;51.080;13.712;2023-06-19T10:30:16;100121.63;;;27.76;42.96
6453;BME280;3259;51.080;13.712;2023-06-19T10:33:06;100116.72;;;27.66;43.66
6453;BME280;3259;51.080;13.712;2023-06-19T10:35:55;100121.66;;;27.69;43.70
6453;BME280;3259;51.080;13.712;2023-06-19T10:38:44;100120.38;;;27.72;43.80
6453;BME280;3259;51.080;13.712;2023-06-19T10:41:34;100108.44;;;27.74;43.89
6453;BME280;3259;51.080;13.712;2023-06-19T10:44:25;100106.59;;;27.75;44.27
6453;BME280;3259;51.080;13.712;2023-06-19T10:47:14;100104.94;;;27.92;43.76
6453;BME280;3259;51.080;13.712;2023-06-19T10:50:05;100102.78;;;27.82;43.85
6453;BME280;3259;51.080;13.712;2023-06-19T10:52:57;100096.53;;;28.06;43.24
6453;BME280;3259;51.080;13.712;2023-06-19T10:55:48;100087.66;;;28.06;42.98
6453;BME280;3259;51.080;13.712;2023-06-19T10:58:37;100090.94;;;27.90;43.46
6453;BME280;3259;51.080;13.712;2023-06-19T11:01:34;100109.13;;;27.88;43.60
6453;BME280;3259;51.080;13.712;2023-06-19T11:04:23;100110.69;;;27.95;43.30
6453;BME280;3259;51.080;13.712;2023-06-19T11:07:12;100098.19;;;28.07;43.26
6453;BME280;3259;51.080;13.712;2023-06-19T11:10:01;100105.63;;;28.05;43.08
6453;BME280;3259;51.080;13.712;2023-06-19T11:12:53;100103.09;;;28.10;42.86
6453;BME280;3259;51.080;13.712;2023-06-19T11:15:42;100097.59;;;28.05;42.68
6453;BME280;3259;51.080;13.712;2023-06-19T11:18:32;100103.38;;;28.02;42.82
6453;BME280;3259;51.080;13.712;2023-06-19T11:21:29;100098.47;;;28.17;42.81
6453;BME280;3259;51.080;13.712;2023-06-19T11:24:20;100094.59;;;28.13;42.85
6453;BME280;3259;51.080;13.712;2023-06-19T11:27:18;100102.63;;;28.13;42.42
6453;BME280;3259;51.080;13.712;2023-06-19T11:30:11;100094.44;;;28.44;42.03
6453;BME280;3259;51.080;13.712;2023-06-19T11:33:00;100087.91;;;28.40;42.02
6453;BME280;3259;51.080;13.712;2023-06-19T11:35:53;100082.66;;;28.27;41.99
6453;BME280;3259;51.080;13.712;2023-06-19T11:38:42;100088.53;;;28.53;41.85
6453;BME280;3259;51.080;13.712;2023-06-19T11:41:34;100081.88;;;28.56;41.56
6453;BME280;3259;51.080;13.712;2023-06-19T11:44:23;100074.63;;;28.45;41.03
6453;BME280;3259;51.080;13.712;2023-06-19T11:47:11;100071.75;;;28.58;40.21
6453;BME280;3259;51.080;13.712;2023-06-19T11:50:04;100063.75;;;28.40;40.08
6453;BME280;3259;51.080;13.712;2023-06-19T11:52:54;100073.06;;;28.67;40.44
6453;BME280;3259;51.080;13.712;2023-06-19T11:55:44;100064.94;;;28.85;40.06
6453;BME280;3259;51.080;13.712;2023-06-19T11:58:33;100060.69;;;28.66;40.69
6453;BME280;3259;51.080;13.712;2023-06-19T12:01:22;100062.78;;;28.64;40.69
6453;BME280;3259;51.080;13.712;2023-06-19T12:04:11;100060.22;;;28.69;40.33
6453;BME280;3259;51.080;13.712;2023-06-19T12:07:01;100058.59;;;28.68;40.30
6453;BME280;3259;51.080;13.712;2023-06-19T12:09:52;100053.34;;;28.73;40.98
6453;BME280;3259;51.080;13.712;2023-06-19T12:12:41;100058.03;;;28.77;40.35
6453;BME280;3259;51.080;13.712;2023-06-19T12:15:29;100051.66;;;28.90;40.64
6453;BME280;3259;51.080;13.712;2023-06-19T12:18:20;100043.88;;;29.00;39.55
6453;BME280;3259;51.080;13.712;2023-06-19T12:21:09;100035.00;;;29.11;39.85
6453;BME280;3259;51.080;13.712;2023-06-19T12:24:18;100041.69;;;29.31;39.14
6453;BME280;3259;51.080;13.712;2023-06-19T12:27:08;100050.78;;;29.42;39.40
6453;BME280;3259;51.080;13.712;2023-06-19T12:29:56;100044.53;;;29.48;39.44
6453;BME280;3259;51.080;13.712;2023-06-19T12:32:45;100045.41;;;29.42;39.49
6453;BME280;3259;51.080;13.712;2023-06-19T12:35:39;100034.44;;;29.55;39.30
6453;BME280;3259;51.080;13.712;2023-06-19T12:38:28;100032.81;;;29.54;39.13
6453;BME280;3259;51.080;13.712;2023-06-19T12:41:17;100033.88;;;29.53;39.58
6453;BME280;3259;51.080;13.712;2023-06-19T12:44:07;100038.09;;;29.49;39.34
6453;BME280;3259;51.080;13.712;2023-06-19T12:46:56;100031.97;;;29.42;39.99
6453;BME280;3259;51.080;13.712;2023-06-19T12:49:45;100020.91;;;29.50;40.01
6453;BME280;3259;51.080;13.712;2023-06-19T12:52:34;100012.13;;;29.54;39.49
6453;BME280;3259;51.080;13.712;2023-06-19T12:55:22;100014.00;;;29.19;40.35
6453;BME280;3259;51.080;13.712;2023-06-19T12:58:11;100023.44;;;29.22;40.81
6453;BME280;3259;51.080;13.712;2023-06-19T13:01:01;100023.78;;;29.25;40.17
6453;BME280;3259;51.080;13.712;2023-06-19T13:03:50;100024.63;;;29.26;40.24
6453;BME280;3259;51.080;13.712;2023-06-19T13:06:39;100017.63;;;29.25;40.53
6453;BME280;3259;51.080;13.712;2023-06-19T13:09:28;100008.03;;;29.29;40.54
6453;BME280;3259;51.080;13.712;2023-06-19T13:12:17;100009.41;;;29.20;40.73
6453;BME280;3259;51.080;13.712;2023-06-19T13:15:07;100003.47;;;29.18;40.83
6453;BME280;3259;51.080;13.712;2023-06-19T13:17:57;100004.06;;;29.08;40.41
6453;BME280;3259;51.080;13.712;2023-06-19T13:20:46;100005.91;;;29.08;41.15
6453;BME280;3259;51.080;13.712;2023-06-19T13:23:36;100002.78;;;29.22;40.50
6453;BME280;3259;51.080;13.712;2023-06-19T13:26:25;100008.13;;;29.11;40.85
6453;BME280;3259;51.080;13.712;2023-06-19T13:29:14;100001.25;;;29.15;40.75
6453;BME280;3259;51.080;13.712;2023-06-19T13:32:04;100002.16;;;29.09;41.20
6453;BME280;3259;51.080;13.712;2023-06-19T13:34:54;99991.66;;;29.19;40.68
6453;BME280;3259;51.080;13.712;2023-06-19T13:37:43;99986.06;;;29.09;40.72
6453;BME280;3259;51.080;13.712;2023-06-19T13:40:34;99982.66;;;29.13;40.75
6453;BME280;3259;51.080;13.712;2023-06-19T13:43:22;99992.00;;;29.11;40.85
6453;BME280;3259;51.080;13.712;2023-06-19T13:46:11;99984.91;;;29.05;41.13
6453;BME280;3259;51.080;13.712;2023-06-19T13:49:00;99983.25;;;29.04;41.28
6453;BME280;3259;51.080;13.712;2023-06-19T13:51:50;99995.75;;;29.10;40.92
6453;BME280;3259;51.080;13.712;2023-06-19T13:54:39;99986.19;;;29.14;41.09
6453;BME280;3259;51.080;13.712;2023-06-19T13:57:28;99988.03;;;29.13;40.63
6453;BME280;3259;51.080;13.712;2023-06-19T14:00:17;99992.16;;;29.16;41.03
6453;BME280;3259;51.080;13.712;2023-06-19T14:03:06;99987.81;;;29.15;41.11
6453;BME280;3259;51.080;13.712;2023-06-19T14:05:55;99978.81;;;29.21;40.78
6453;BME280;3259;51.080;13.712;2023-06-19T14:08:45;99974.38;;;29.15;40.89
6453;BME280;3259;51.080;13.712;2023-06-19T14:11:33;99971.69;;;29.03;40.88
6453;BME280;3259;51.080;13.712;2023-06-19T14:14:22;99975.91;;;28.99;40.89
6453;BME280;3259;51.080;13.712;2023-06-19T14:17:11;99979.53;;;29.05;41.33
6453;BME280;3259;51.080;13.712;2023-06-19T14:19:59;99972.41;;;29.10;40.92
6453;BME280;3259;51.080;13.712;2023-06-19T14:22:49;99966.69;;;29.18;40.83
6453;BME280;3259;51.080;13.712;2023-06-19T14:25:39;99964.19;;;29.40;40.24
6453;BME280;3259;51.080;13.712;2023-06-19T14:28:30;99964.31;;;29.45;40.75
6453;BME280;3259;51.080;13.712;2023-06-19T14:31:19;99963.97;;;29.41;40.38
6453;BME280;3259;51.080;13.712;2023-06-19T14:34:08;99966.75;;;29.46;40.34
6453;BME280;3259;51.080;13.712;2023-06-19T14:36:57;99963.88;;;29.48;40.19
6453;BME280;3259;51.080;13.712;2023-06-19T14:39:45;99965.50;;;29.49;40.90
6453;BME280;3259;51.080;13.712;2023-06-19T14:42:35;99957.53;;;29.54;40.18
6453;BME280;3259;51.080;13.712;2023-06-19T14:45:24;99962.78;;;29.37;41.14
6453;BME280;3259;51.080;13.712;2023-06-19T14:48:13;99959.44;;;29.30;40.68
6453;BME280;3259;51.080;13.712;2023-06-19T14:51:02;99966.88;;;29.40;40.64
6453;BME280;3259;51.080;13.712;2023-06-19T14:53:52;99971.56;;;29.56;40.73
6453;BME280;3259;51.080;13.712;2023-06-19T14:56:41;99968.28;;;29.54;40.62
6453;BME280;3259;51.080;13.712;2023-06-19T14:59:32;99961.28;;;29.53;40.21
6453;BME280;3259;51.080;13.712;2023-06-19T15:02:21;99967.59;;;29.47;40.86